SLAS/ASC METAR and TAF weather

Enter ICAO airport designator
Station Type Date Time Source
SLAS METAR 2019/12/08 13:00 UTC NOAA

SLAS 081300Z 36010KT 9999 SCT013 BKN200 27/24 Q1013


Station Type Date Time Source
SLAS Decoded METAR 2019/12/08 13:00 UTC NOAA

Ascencion De Guarayos, Bolivia (SLAS) 15-43S 063-06W
Dec 08, 2019 - 08:00 AM EST / 2019.12.08 1300 UTC
Wind: from the N (360 degrees) at 12 MPH (10 KT):0
Visibility: greater than 7 mile(s):0
Sky conditions: mostly cloudy
Temperature: 80 F (27 C)
Dew Point: 75 F (24 C)
Relative Humidity: 83%
Pressure (altimeter): 29.91 in. Hg (1013 hPa)
ob: SLAS 081300Z 36010KT 9999 SCT013 BKN200 27/24 Q1013
cycle: 13

Station Type Date Time Source
SLAS TAF UTC NOAA

Error!

Example: see airport list